sensor_id;sensor_type;location;lat;lon;timestamp;pressure;altitude;pressure_sealevel;temperature;humidity
65157;BME280;52745;49.794;18.258;2023-03-03T00:00:10;-15925.31;;;-0.45;86.81
65157;BME280;52745;49.794;18.258;2023-03-03T00:03:02;-15924.75;;;-0.47;87.02
65157;BME280;52745;49.794;18.258;2023-03-03T00:05:31;-15923.41;;;-0.52;87.33
65157;BME280;52745;49.794;18.258;2023-03-03T00:07:59;-15921.34;;;-0.60;87.60
65157;BME280;52745;49.794;18.258;2023-03-03T00:10:26;-15921.47;;;-0.59;87.59
65157;BME280;52745;49.794;18.258;2023-03-03T00:12:53;-15922.44;;;-0.56;88.04
65157;BME280;52745;49.794;18.258;2023-03-03T00:15:23;-15921.34;;;-0.60;87.82
65157;BME280;52745;49.794;18.258;2023-03-03T00:17:51;-15922.44;;;-0.56;87.57
65157;BME280;52745;49.794;18.258;2023-03-03T00:22:51;-15921.75;;;-0.58;87.76
65157;BME280;52745;49.794;18.258;2023-03-03T00:27:45;-15920.25;;;-0.64;87.24
65157;BME280;52745;49.794;18.258;2023-03-03T00:30:26;-15918.19;;;-0.72;87.03
65157;BME280;52745;49.794;18.258;2023-03-03T00:32:54;-15919.28;;;-0.68;87.32
65157;BME280;52745;49.794;18.258;2023-03-03T00:37:58;-15917.63;;;-0.74;87.13
65157;BME280;52745;49.794;18.258;2023-03-03T00:40:36;-15916.28;;;-0.79;87.44
65157;BME280;52745;49.794;18.258;2023-03-03T00:43:21;-15914.63;;;-0.85;87.28
65157;BME280;52745;49.794;18.258;2023-03-03T00:45:53;-15914.63;;;-0.85;87.28
65157;BME280;52745;49.794;18.258;2023-03-03T00:51:28;-15916.81;;;-0.77;86.35
65157;BME280;52745;49.794;18.258;2023-03-03T00:53:56;-15915.16;;;-0.83;87.80
65157;BME280;52745;49.794;18.258;2023-03-03T00:56:23;-15915.16;;;-0.83;88.10
65157;BME280;52745;49.794;18.258;2023-03-03T00:58:50;-15916.13;;;-0.79;88.75
65157;BME280;52745;49.794;18.258;2023-03-03T01:01:19;-15915.44;;;-0.82;87.72
65157;BME280;52745;49.794;18.258;2023-03-03T01:03:50;-15915.16;;;-0.83;87.74
65157;BME280;52745;49.794;18.258;2023-03-03T01:06:17;-15915.03;;;-0.84;87.91
65157;BME280;52745;49.794;18.258;2023-03-03T01:08:44;-15915.59;;;-0.81;87.68
65157;BME280;52745;49.794;18.258;2023-03-03T01:11:11;-15916.13;;;-0.79;87.50
65157;BME280;52745;49.794;18.258;2023-03-03T01:13:41;-15915.03;;;-0.84;86.84
65157;BME280;52745;49.794;18.258;2023-03-03T01:16:09;-15914.91;;;-0.84;87.26
65157;BME280;52745;49.794;18.258;2023-03-03T01:18:36;-15913.66;;;-0.89;86.87
65157;BME280;52745;49.794;18.258;2023-03-03T01:21:03;-15911.75;;;-0.96;86.87
65157;BME280;52745;49.794;18.258;2023-03-03T01:23:32;-15910.91;;;-0.99;87.33
65157;BME280;52745;49.794;18.258;2023-03-03T01:25:59;-15912.16;;;-0.94;88.25
65157;BME280;52745;49.794;18.258;2023-03-03T01:28:27;-15911.06;;;-0.98;88.55
65157;BME280;52745;49.794;18.258;2023-03-03T01:30:53;-15910.78;;;-0.99;88.65
65157;BME280;52745;49.794;18.258;2023-03-03T01:33:20;-15911.34;;;-0.97;88.75
65157;BME280;52745;49.794;18.258;2023-03-03T01:35:47;-15911.59;;;-0.96;88.60
65157;BME280;52745;49.794;18.258;2023-03-03T01:38:14;-15912.28;;;-0.94;88.79
65157;BME280;52745;49.794;18.258;2023-03-03T01:40:41;-15910.38;;;-1.01;88.84
65157;BME280;52745;49.794;18.258;2023-03-03T01:43:13;-15910.50;;;-1.00;89.29
65157;BME280;52745;49.794;18.258;2023-03-03T01:48:27;-15910.91;;;-0.99;90.70
65157;BME280;52745;49.794;18.258;2023-03-03T01:51:00;-15912.16;;;-0.94;91.11
65157;BME280;52745;49.794;18.258;2023-03-03T01:53:33;-15912.44;;;-0.93;90.19
65157;BME280;52745;49.794;18.258;2023-03-03T01:56:04;-15910.25;;;-1.01;88.88
65157;BME280;52745;49.794;18.258;2023-03-03T01:58:41;-15910.66;;;-1.00;88.35
65157;BME280;52745;49.794;18.258;2023-03-03T02:01:30;-15909.69;;;-1.03;87.92
65157;BME280;52745;49.794;18.258;2023-03-03T02:03:59;-15909.28;;;-1.05;89.24
65157;BME280;52745;49.794;18.258;2023-03-03T02:06:30;-15907.22;;;-1.13;88.18
65157;BME280;52745;49.794;18.258;2023-03-03T02:09:06;-15906.41;;;-1.16;88.34
65157;BME280;52745;49.794;18.258;2023-03-03T02:11:37;-15905.44;;;-1.19;88.24
65157;BME280;52745;49.794;18.258;2023-03-03T02:14:04;-15904.88;;;-1.21;87.97
65157;BME280;52745;49.794;18.258;2023-03-03T02:16:31;-15904.75;;;-1.22;88.48
65157;BME280;52745;49.794;18.258;2023-03-03T02:18:59;-15903.94;;;-1.25;87.91
65157;BME280;52745;49.794;18.258;2023-03-03T02:21:26;-15903.25;;;-1.28;87.92
65157;BME280;52745;49.794;18.258;2023-03-03T02:26:35;-15902.00;;;-1.32;88.25
65157;BME280;52745;49.794;18.258;2023-03-03T02:29:07;-15900.78;;;-1.37;89.09
65157;BME280;52745;49.794;18.258;2023-03-03T02:31:36;-15902.16;;;-1.32;88.91
65157;BME280;52745;49.794;18.258;2023-03-03T02:34:04;-15897.47;;;-1.49;89.33
65157;BME280;52745;49.794;18.258;2023-03-03T02:36:34;-15898.16;;;-1.47;90.02
65157;BME280;52745;49.794;18.258;2023-03-03T02:46:38;-15901.19;;;-1.35;89.02
65157;BME280;52745;49.794;18.258;2023-03-03T02:49:07;-15900.09;;;-1.39;88.82
65157;BME280;52745;49.794;18.258;2023-03-03T02:51:34;-15898.72;;;-1.44;88.80
65157;BME280;52745;49.794;18.258;2023-03-03T02:54:02;-15898.84;;;-1.44;88.07
65157;BME280;52745;49.794;18.258;2023-03-03T02:56:32;-15897.06;;;-1.51;88.56
65157;BME280;52745;49.794;18.258;2023-03-03T02:58:59;-15898.44;;;-1.46;88.28
65157;BME280;52745;49.794;18.258;2023-03-03T03:01:27;-15896.78;;;-1.52;87.40
65157;BME280;52745;49.794;18.258;2023-03-03T03:03:57;-15895.97;;;-1.55;87.90
65157;BME280;52745;49.794;18.258;2023-03-03T03:06:24;-15895.16;;;-1.58;88.00
65157;BME280;52745;49.794;18.258;2023-03-03T03:08:51;-15894.47;;;-1.60;87.73
65157;BME280;52745;49.794;18.258;2023-03-03T03:11:18;-15893.91;;;-1.62;87.89
65157;BME280;52745;49.794;18.258;2023-03-03T03:13:45;-15894.59;;;-1.60;87.78
65157;BME280;52745;49.794;18.258;2023-03-03T03:16:12;-15891.84;;;-1.70;87.76
65157;BME280;52745;49.794;18.258;2023-03-03T03:18:39;-15891.31;;;-1.72;88.42
65157;BME280;52745;49.794;18.258;2023-03-03T03:21:08;-15890.91;;;-1.74;88.25
65157;BME280;52745;49.794;18.258;2023-03-03T03:23:36;-15888.97;;;-1.81;87.96
65157;BME280;52745;49.794;18.258;2023-03-03T03:26:04;-15888.16;;;-1.84;87.72
65157;BME280;52745;49.794;18.258;2023-03-03T03:28:31;-15888.97;;;-1.81;87.66
65157;BME280;52745;49.794;18.258;2023-03-03T03:30:58;-15888.84;;;-1.81;87.71
65157;BME280;52745;49.794;18.258;2023-03-03T03:33:26;-15888.44;;;-1.83;87.69
65157;BME280;52745;49.794;18.258;2023-03-03T03:35:55;-15887.19;;;-1.88;88.21
65157;BME280;52745;49.794;18.258;2023-03-03T03:38:24;-15888.03;;;-1.84;87.70
65157;BME280;52745;49.794;18.258;2023-03-03T03:40:53;-15888.16;;;-1.84;88.31
65157;BME280;52745;49.794;18.258;2023-03-03T03:43:20;-15887.19;;;-1.88;88.21
65157;BME280;52745;49.794;18.258;2023-03-03T03:45:47;-15887.06;;;-1.88;88.40
65157;BME280;52745;49.794;18.258;2023-03-03T03:48:16;-15885.81;;;-1.93;89.02
65157;BME280;52745;49.794;18.258;2023-03-03T03:50:46;-15886.38;;;-1.91;88.86
65157;BME280;52745;49.794;18.258;2023-03-03T03:53:15;-15886.91;;;-1.89;88.68
65157;BME280;52745;49.794;18.258;2023-03-03T03:55:41;-15888.03;;;-1.84;88.10
65157;BME280;52745;49.794;18.258;2023-03-03T03:58:12;-15888.44;;;-1.83;88.85
65157;BME280;52745;49.794;18.258;2023-03-03T04:00:40;-15887.34;;;-1.87;88.67
65157;BME280;52745;49.794;18.258;2023-03-03T04:03:08;-15889.13;;;-1.80;88.16
65157;BME280;52745;49.794;18.258;2023-03-03T04:05:37;-15888.28;;;-1.83;88.55
65157;BME280;52745;49.794;18.258;2023-03-03T04:08:05;-15889.94;;;-1.77;88.53
65157;BME280;52745;49.794;18.258;2023-03-03T04:10:33;-15889.94;;;-1.77;87.92
65157;BME280;52745;49.794;18.258;2023-03-03T04:13:00;-15890.22;;;-1.76;88.72
65157;BME280;52745;49.794;18.258;2023-03-03T04:15:27;-15890.06;;;-1.77;89.25
65157;BME280;52745;49.794;18.258;2023-03-03T04:17:54;-15890.06;;;-1.77;89.23
65157;BME280;52745;49.794;18.258;2023-03-03T04:20:21;-15891.19;;;-1.73;88.46
65157;BME280;52745;49.794;18.258;2023-03-03T04:22:48;-15891.59;;;-1.71;88.33
65157;BME280;52745;49.794;18.258;2023-03-03T04:25:16;-15892.81;;;-1.67;88.48
65157;BME280;52745;49.794;18.258;2023-03-03T04:27:44;-15895.00;;;-1.58;88.36
65157;BME280;52745;49.794;18.258;2023-03-03T04:30:14;-15896.38;;;-1.53;87.55
65157;BME280;52745;49.794;18.258;2023-03-03T04:32:44;-15899.53;;;-1.41;88.14
65157;BME280;52745;49.794;18.258;2023-03-03T04:35:12;-15897.06;;;-1.51;89.75
65157;BME280;52745;49.794;18.258;2023-03-03T04:37:42;-15899.53;;;-1.41;89.95
65157;BME280;52745;49.794;18.258;2023-03-03T04:40:10;-15902.69;;;-1.30;89.11
65157;BME280;52745;49.794;18.258;2023-03-03T04:42:38;-15901.19;;;-1.35;89.20
65157;BME280;52745;49.794;18.258;2023-03-03T04:45:07;-15904.19;;;-1.24;88.41
65157;BME280;52745;49.794;18.258;2023-03-03T04:47:35;-15909.81;;;-1.03;88.00
65157;BME280;52745;49.794;18.258;2023-03-03T04:50:03;-15908.31;;;-1.09;87.73
65157;BME280;52745;49.794;18.258;2023-03-03T04:52:32;-15902.16;;;-1.32;88.63
65157;BME280;52745;49.794;18.258;2023-03-03T04:54:59;-15899.13;;;-1.43;90.34
65157;BME280;52745;49.794;18.258;2023-03-03T04:57:26;-15899.94;;;-1.40;91.39
65157;BME280;52745;49.794;18.258;2023-03-03T04:59:54;-15898.16;;;-1.47;92.97
65157;BME280;52745;49.794;18.258;2023-03-03T05:02:21;-15896.94;;;-1.51;94.34
65157;BME280;52745;49.794;18.258;2023-03-03T05:04:48;-15897.22;;;-1.50;96.74
65157;BME280;52745;49.794;18.258;2023-03-03T05:07:15;-15898.16;;;-1.47;98.45
65157;BME280;52745;49.794;18.258;2023-03-03T05:09:43;-15895.97;;;-1.55;99.80
65157;BME280;52745;49.794;18.258;2023-03-03T05:12:10;-15896.38;;;-1.53;100.00
65157;BME280;52745;49.794;18.258;2023-03-03T05:14:36;-15899.13;;;-1.43;100.00
65157;BME280;52745;49.794;18.258;2023-03-03T05:17:03;-15896.53;;;-1.53;100.00
65157;BME280;52745;49.794;18.258;2023-03-03T05:19:31;-15898.16;;;-1.47;100.00
65157;BME280;52745;49.794;18.258;2023-03-03T05:22:00;-15895.00;;;-1.58;100.00
65157;BME280;52745;49.794;18.258;2023-03-03T05:24:27;-15897.63;;;-1.49;100.00
65157;BME280;52745;49.794;18.258;2023-03-03T05:26:54;-15896.25;;;-1.54;100.00
65157;BME280;52745;49.794;18.258;2023-03-03T05:29:21;-15898.03;;;-1.47;100.00
65157;BME280;52745;49.794;18.258;2023-03-03T05:31:48;-15899.00;;;-1.43;100.00
65157;BME280;52745;49.794;18.258;2023-03-03T05:34:15;-15898.56;;;-1.45;100.00
65157;BME280;52745;49.794;18.258;2023-03-03T05:36:42;-15895.97;;;-1.55;100.00
65157;BME280;52745;49.794;18.258;2023-03-03T05:39:08;-15892.13;;;-1.69;100.00
65157;BME280;52745;49.794;18.258;2023-03-03T05:41:35;-15893.09;;;-1.65;100.00
65157;BME280;52745;49.794;18.258;2023-03-03T05:44:02;-15892.69;;;-1.67;100.00
65157;BME280;52745;49.794;18.258;2023-03-03T05:46:30;-15890.75;;;-1.74;100.00
65157;BME280;52745;49.794;18.258;2023-03-03T05:48:56;-15888.28;;;-1.83;100.00
65157;BME280;52745;49.794;18.258;2023-03-03T05:51:23;-15890.47;;;-1.75;100.00
65157;BME280;52745;49.794;18.258;2023-03-03T05:53:50;-15889.94;;;-1.77;100.00
65157;BME280;52745;49.794;18.258;2023-03-03T05:56:17;-15885.41;;;-1.94;100.00
65157;BME280;52745;49.794;18.258;2023-03-03T05:58:44;-15883.34;;;-2.02;100.00
65157;BME280;52745;49.794;18.258;2023-03-03T06:01:11;-15883.91;;;-2.00;100.00
65157;BME280;52745;49.794;18.258;2023-03-03T06:03:38;-15879.66;;;-2.16;100.00
65157;BME280;52745;49.794;18.258;2023-03-03T06:06:05;-15883.91;;;-2.00;100.00
65157;BME280;52745;49.794;18.258;2023-03-03T06:08:32;-15887.34;;;-1.87;100.00
65157;BME280;52745;49.794;18.258;2023-03-03T06:10:59;-15887.34;;;-1.87;100.00
65157;BME280;52745;49.794;18.258;2023-03-03T06:13:25;-15887.59;;;-1.86;100.00
65157;BME280;52745;49.794;18.258;2023-03-03T06:15:52;-15886.66;;;-1.90;100.00
65157;BME280;52745;49.794;18.258;2023-03-03T06:18:19;-15887.34;;;-1.87;100.00
65157;BME280;52745;49.794;18.258;2023-03-03T06:20:50;-15884.44;;;-1.98;100.00
65157;BME280;52745;49.794;18.258;2023-03-03T06:23:17;-15877.88;;;-2.22;100.00
65157;BME280;52745;49.794;18.258;2023-03-03T06:25:45;-15877.88;;;-2.22;100.00
65157;BME280;52745;49.794;18.258;2023-03-03T06:28:12;-15877.31;;;-2.24;100.00
65157;BME280;52745;49.794;18.258;2023-03-03T06:30:39;-15878.56;;;-2.20;100.00
65157;BME280;52745;49.794;18.258;2023-03-03T06:33:06;-15877.19;;;-2.25;100.00
65157;BME280;52745;49.794;18.258;2023-03-03T06:35:33;-15876.38;;;-2.28;100.00
65157;BME280;52745;49.794;18.258;2023-03-03T06:38:00;-15874.56;;;-2.35;100.00
65157;BME280;52745;49.794;18.258;2023-03-03T06:40:27;-15876.78;;;-2.26;100.00
65157;BME280;52745;49.794;18.258;2023-03-03T06:42:53;-15882.13;;;-2.06;100.00
65157;BME280;52745;49.794;18.258;2023-03-03T06:45:21;-15878.69;;;-2.19;100.00
65157;BME280;52745;49.794;18.258;2023-03-03T06:47:47;-15888.69;;;-1.82;100.00
65157;BME280;52745;49.794;18.258;2023-03-03T06:50:17;-15894.88;;;-1.59;100.00
65157;BME280;52745;49.794;18.258;2023-03-03T06:52:45;-15890.75;;;-1.74;100.00
65157;BME280;52745;49.794;18.258;2023-03-03T06:55:17;-15890.75;;;-1.74;100.00
65157;BME280;52745;49.794;18.258;2023-03-03T06:57:46;-15889.66;;;-1.78;100.00
65157;BME280;52745;49.794;18.258;2023-03-03T07:00:23;-15879.66;;;-2.16;100.00
65157;BME280;52745;49.794;18.258;2023-03-03T07:02:59;-15881.28;;;-2.10;100.00
65157;BME280;52745;49.794;18.258;2023-03-03T07:05:28;-15875.66;;;-2.31;100.00
65157;BME280;52745;49.794;18.258;2023-03-03T07:07:56;-15880.47;;;-2.13;100.00
65157;BME280;52745;49.794;18.258;2023-03-03T07:10:26;-15880.88;;;-2.11;100.00
65157;BME280;52745;49.794;18.258;2023-03-03T07:12:55;-15886.78;;;-1.89;100.00
65157;BME280;52745;49.794;18.258;2023-03-03T07:15:29;-15889.25;;;-1.80;100.00
65157;BME280;52745;49.794;18.258;2023-03-03T07:18:02;-15886.78;;;-1.89;100.00
65157;BME280;52745;49.794;18.258;2023-03-03T07:20:35;-15889.66;;;-1.78;100.00
65157;BME280;52745;49.794;18.258;2023-03-03T07:23:20;-15891.03;;;-1.73;100.00
65157;BME280;52745;49.794;18.258;2023-03-03T07:25:49;-15892.69;;;-1.67;100.00
65157;BME280;52745;49.794;18.258;2023-03-03T07:30:50;-15893.78;;;-1.63;100.00
65157;BME280;52745;49.794;18.258;2023-03-03T07:35:56;-15900.78;;;-1.37;100.00
65157;BME280;52745;49.794;18.258;2023-03-03T07:38:29;-15908.19;;;-1.09;100.00
65157;BME280;52745;49.794;18.258;2023-03-03T07:40:59;-15913.81;;;-0.88;100.00
65157;BME280;52745;49.794;18.258;2023-03-03T07:43:37;-15920.53;;;-0.63;100.00
65157;BME280;52745;49.794;18.258;2023-03-03T07:48:41;-15924.09;;;-0.50;97.90
65157;BME280;52745;49.794;18.258;2023-03-03T07:53:51;-15924.50;;;-0.48;97.06
65157;BME280;52745;49.794;18.258;2023-03-03T07:56:33;-15925.72;;;-0.44;96.59
65157;BME280;52745;49.794;18.258;2023-03-03T07:59:15;-15924.34;;;-0.49;96.71
65157;BME280;52745;49.794;18.258;2023-03-03T08:01:45;-15915.03;;;-0.84;98.62
65157;BME280;52745;49.794;18.258;2023-03-03T08:04:19;-15916.13;;;-0.79;98.85
65157;BME280;52745;49.794;18.258;2023-03-03T08:06:50;-15923.66;;;-0.51;97.81
65157;BME280;52745;49.794;18.258;2023-03-03T08:11:50;-15916.28;;;-0.79;98.14
65157;BME280;52745;49.794;18.258;2023-03-03T08:14:27;-15912.56;;;-0.93;99.49
65157;BME280;52745;49.794;18.258;2023-03-03T08:16:56;-15914.75;;;-0.85;100.00
65157;BME280;52745;49.794;18.258;2023-03-03T08:19:23;-15909.56;;;-1.04;100.00
65157;BME280;52745;49.794;18.258;2023-03-03T08:21:51;-15908.88;;;-1.07;100.00
65157;BME280;52745;49.794;18.258;2023-03-03T08:24:19;-15916.81;;;-0.77;100.00
65157;BME280;52745;49.794;18.258;2023-03-03T08:26:46;-15922.31;;;-0.56;100.00
65157;BME280;52745;49.794;18.258;2023-03-03T08:29:13;-15925.03;;;-0.46;99.63
65157;BME280;52745;49.794;18.258;2023-03-03T08:31:40;-15924.09;;;-0.50;99.65
65157;BME280;52745;49.794;18.258;2023-03-03T08:34:07;-15921.88;;;-0.58;99.81
65157;BME280;52745;49.794;18.258;2023-03-03T08:36:34;-15916.13;;;-0.79;100.00
65157;BME280;52745;49.794;18.258;2023-03-03T08:39:02;-15916.53;;;-0.78;100.00
65157;BME280;52745;49.794;18.258;2023-03-03T08:41:29;-15915.03;;;-0.84;100.00
65157;BME280;52745;49.794;18.258;2023-03-03T08:43:55;-15912.56;;;-0.93;100.00
65157;BME280;52745;49.794;18.258;2023-03-03T08:46:22;-15911.19;;;-0.98;100.00
65157;BME280;52745;49.794;18.258;2023-03-03T08:48:49;-15912.03;;;-0.95;100.00
65157;BME280;52745;49.794;18.258;2023-03-03T08:51:17;-15910.66;;;-1.00;100.00
65157;BME280;52745;49.794;18.258;2023-03-03T08:53:43;-15910.66;;;-1.00;100.00
65157;BME280;52745;49.794;18.258;2023-03-03T08:56:10;-15913.94;;;-0.88;100.00
65157;BME280;52745;49.794;18.258;2023-03-03T08:58:37;-15918.19;;;-0.72;100.00
65157;BME280;52745;49.794;18.258;2023-03-03T09:01:05;-15918.88;;;-0.69;100.00
65157;BME280;52745;49.794;18.258;2023-03-03T09:03:31;-15917.91;;;-0.73;100.00
65157;BME280;52745;49.794;18.258;2023-03-03T09:05:58;-15916.94;;;-0.76;100.00
65157;BME280;52745;49.794;18.258;2023-03-03T09:08:25;-15918.72;;;-0.70;100.00
65157;BME280;52745;49.794;18.258;2023-03-03T09:10:52;-15917.09;;;-0.76;100.00
65157;BME280;52745;49.794;18.258;2023-03-03T09:13:19;-15917.38;;;-0.75;100.00
65157;BME280;52745;49.794;18.258;2023-03-03T09:15:47;-15916.69;;;-0.77;100.00
65157;BME280;52745;49.794;18.258;2023-03-03T09:20:45;-15913.81;;;-0.88;100.00
65157;BME280;52745;49.794;18.258;2023-03-03T09:23:37;-15916.00;;;-0.80;100.00
65157;BME280;52745;49.794;18.258;2023-03-03T09:26:24;-15925.88;;;-0.43;100.00
65157;BME280;52745;49.794;18.258;2023-03-03T09:28:59;-15928.59;;;-0.33;100.00
65157;BME280;52745;49.794;18.258;2023-03-03T09:36:53;-15929.16;;;-0.31;100.00
65157;BME280;52745;49.794;18.258;2023-03-03T09:39:24;-15928.88;;;-0.32;100.00
65157;BME280;52745;49.794;18.258;2023-03-03T09:44:57;-15929.69;;;-0.29;100.00
65157;BME280;52745;49.794;18.258;2023-03-03T09:47:35;-15929.84;;;-0.28;100.00
65157;BME280;52745;49.794;18.258;2023-03-03T09:50:25;-15930.25;;;-0.27;100.00
65157;BME280;52745;49.794;18.258;2023-03-03T09:55:43;-15926.41;;;-0.41;100.00
65157;BME280;52745;49.794;18.258;2023-03-03T10:05:57;-15937.78;;;0.02;100.00
65157;BME280;52745;49.794;18.258;2023-03-03T10:27:50;-15930.25;;;-0.27;100.00
65157;BME280;52745;49.794;18.258;2023-03-03T10:33:45;-15937.09;;;-0.01;100.00
65157;BME280;52745;49.794;18.258;2023-03-03T10:36:20;-15932.03;;;-0.20;100.00
65157;BME280;52745;49.794;18.258;2023-03-03T11:05:59;-15928.34;;;-0.34;100.00
65157;BME280;52745;49.794;18.258;2023-03-03T11:14:24;-15930.53;;;-0.26;100.00
65157;BME280;52745;49.794;18.258;2023-03-03T11:22:53;-15931.06;;;-0.24;100.00
65157;BME280;52745;49.794;18.258;2023-03-03T11:25:42;-15934.91;;;-0.09;100.00
65157;BME280;52745;49.794;18.258;2023-03-03T11:34:03;-15939.56;;;0.08;100.00
65157;BME280;52745;49.794;18.258;2023-03-03T11:36:39;-15940.66;;;0.12;100.00
65157;BME280;52745;49.794;18.258;2023-03-03T11:39:16;-15938.47;;;0.04;100.00
65157;BME280;52745;49.794;18.258;2023-03-03T11:42:01;-15934.22;;;-0.12;100.00
65157;BME280;52745;49.794;18.258;2023-03-03T11:44:37;-15932.84;;;-0.17;100.00
65157;BME280;52745;49.794;18.258;2023-03-03T11:47:23;-15931.91;;;-0.21;100.00
65157;BME280;52745;49.794;18.258;2023-03-03T11:50:03;-15935.19;;;-0.08;100.00
65157;BME280;52745;49.794;18.258;2023-03-03T11:55:16;-15938.75;;;0.05;100.00
65157;BME280;52745;49.794;18.258;2023-03-03T11:57:50;-15938.75;;;0.05;100.00
65157;BME280;52745;49.794;18.258;2023-03-03T12:03:23;-15929.97;;;-0.28;100.00
65157;BME280;52745;49.794;18.258;2023-03-03T12:08:41;-15926.81;;;-0.39;100.00
65157;BME280;52745;49.794;18.258;2023-03-03T12:19:39;-15934.63;;;-0.10;100.00
65157;BME280;52745;49.794;18.258;2023-03-03T12:22:31;-15936.28;;;-0.04;100.00
65157;BME280;52745;49.794;18.258;2023-03-03T12:25:21;-15939.16;;;0.07;99.69
65157;BME280;52745;49.794;18.258;2023-03-03T12:28:22;-15934.78;;;-0.10;99.34
65157;BME280;52745;49.794;18.258;2023-03-03T12:44:39;-15937.50;;;0.01;99.44
65157;BME280;52745;49.794;18.258;2023-03-03T12:47:39;-15944.22;;;0.26;98.80
65157;BME280;52745;49.794;18.258;2023-03-03T12:53:24;-15943.28;;;0.22;98.17
65157;BME280;52745;49.794;18.258;2023-03-03T12:56:03;-15942.03;;;0.17;97.69
65157;BME280;52745;49.794;18.258;2023-03-03T13:01:52;-15936.00;;;-0.05;98.90
65157;BME280;52745;49.794;18.258;2023-03-03T13:07:35;-15929.97;;;-0.28;99.76
65157;BME280;52745;49.794;18.258;2023-03-03T13:10:23;-15932.31;;;-0.19;98.79
65157;BME280;52745;49.794;18.258;2023-03-03T13:13:01;-15933.81;;;-0.13;98.68
65157;BME280;52745;49.794;18.258;2023-03-03T13:21:22;-15936.28;;;-0.04;98.36
65157;BME280;52745;49.794;18.258;2023-03-03T13:31:21;-15945.47;;;0.30;95.96
65157;BME280;52745;49.794;18.258;2023-03-03T13:33:55;-15945.19;;;0.29;95.46
65157;BME280;52745;49.794;18.258;2023-03-03T13:36:27;-15939.84;;;0.09;94.06
65157;BME280;52745;49.794;18.258;2023-03-03T13:38:59;-15936.28;;;-0.04;93.50
65157;BME280;52745;49.794;18.258;2023-03-03T13:41:48;-15929.44;;;-0.30;94.53
65157;BME280;52745;49.794;18.258;2023-03-03T13:44:24;-15930.53;;;-0.26;94.64
65157;BME280;52745;49.794;18.258;2023-03-03T13:49:59;-15930.78;;;-0.25;94.41
65157;BME280;52745;49.794;18.258;2023-03-03T13:52:32;-15937.66;;;0.01;93.78
65157;BME280;52745;49.794;18.258;2023-03-03T14:05:56;-15939.72;;;0.09;91.63
65157;BME280;52745;49.794;18.258;2023-03-03T14:08:54;-15930.66;;;-0.25;92.34
65157;BME280;52745;49.794;18.258;2023-03-03T14:14:27;-15934.78;;;-0.10;92.37
65157;BME280;52745;49.794;18.258;2023-03-03T14:17:02;-15931.06;;;-0.24;92.32
65157;BME280;52745;49.794;18.258;2023-03-03T14:19:34;-15930.13;;;-0.27;93.13
65157;BME280;52745;49.794;18.258;2023-03-03T14:22:08;-15932.72;;;-0.17;93.64
65157;BME280;52745;49.794;18.258;2023-03-03T14:25:08;-15935.06;;;-0.09;92.40
65157;BME280;52745;49.794;18.258;2023-03-03T14:28:00;-15934.91;;;-0.09;92.28
65157;BME280;52745;49.794;18.258;2023-03-03T14:30:39;-15933.53;;;-0.14;93.13
65157;BME280;52745;49.794;18.258;2023-03-03T14:35:39;-15927.91;;;-0.35;93.47
65157;BME280;52745;49.794;18.258;2023-03-03T14:38:20;-15927.50;;;-0.37;93.70
65157;BME280;52745;49.794;18.258;2023-03-03T14:41:03;-15926.69;;;-0.40;93.36
65157;BME280;52745;49.794;18.258;2023-03-03T14:43:37;-15921.34;;;-0.60;93.78
65157;BME280;52745;49.794;18.258;2023-03-03T14:48:53;-15924.22;;;-0.49;94.75
65157;BME280;52745;49.794;18.258;2023-03-03T14:53:55;-15932.44;;;-0.18;93.55
65157;BME280;52745;49.794;18.258;2023-03-03T14:56:25;-15935.59;;;-0.07;92.62
65157;BME280;52745;49.794;18.258;2023-03-03T14:59:24;-15939.72;;;0.09;92.59
65157;BME280;52745;49.794;18.258;2023-03-03T15:04:45;-15933.69;;;-0.14;91.19
65157;BME280;52745;49.794;18.258;2023-03-03T15:07:35;-15930.94;;;-0.24;91.55
65157;BME280;52745;49.794;18.258;2023-03-03T15:10:03;-15932.16;;;-0.19;91.02
65157;BME280;52745;49.794;18.258;2023-03-03T15:12:36;-15931.75;;;-0.21;90.72
65157;BME280;52745;49.794;18.258;2023-03-03T15:18:08;-15929.97;;;-0.28;91.65
65157;BME280;52745;49.794;18.258;2023-03-03T15:20:44;-15923.94;;;-0.50;91.75
65157;BME280;52745;49.794;18.258;2023-03-03T15:31:59;-15911.06;;;-0.98;92.63
65157;BME280;52745;49.794;18.258;2023-03-03T15:34:59;-15913.81;;;-0.88;93.17
65157;BME280;52745;49.794;18.258;2023-03-03T15:43:12;-15921.19;;;-0.60;91.61
65157;BME280;52745;49.794;18.258;2023-03-03T15:51:17;-15943.53;;;0.23;88.00
65157;BME280;52745;49.794;18.258;2023-03-03T15:56:51;-15949.44;;;0.45;86.99
65157;BME280;52745;49.794;18.258;2023-03-03T16:02:21;-15940.25;;;0.11;86.85
65157;BME280;52745;49.794;18.258;2023-03-03T16:07:40;-15944.91;;;0.28;87.33
65157;BME280;52745;49.794;18.258;2023-03-03T16:10:35;-15945.19;;;0.29;86.78
65157;BME280;52745;49.794;18.258;2023-03-03T16:13:40;-15948.47;;;0.41;85.65
65157;BME280;52745;49.794;18.258;2023-03-03T16:16:34;-15944.91;;;0.28;86.55
65157;BME280;52745;49.794;18.258;2023-03-03T16:27:51;-15946.97;;;0.36;86.25
65157;BME280;52745;49.794;18.258;2023-03-03T16:30:36;-15951.91;;;0.54;86.06
65157;BME280;52745;49.794;18.258;2023-03-03T16:35:41;-15948.34;;;0.41;85.34
65157;BME280;52745;49.794;18.258;2023-03-03T16:38:12;-15945.31;;;0.30;86.45
65157;BME280;52745;49.794;18.258;2023-03-03T16:40:56;-15942.72;;;0.20;86.89
65157;BME280;52745;49.794;18.258;2023-03-03T16:46:25;-15950.53;;;0.49;84.43
65157;BME280;52745;49.794;18.258;2023-03-03T16:49:20;-15951.22;;;0.52;85.05
65157;BME280;52745;49.794;18.258;2023-03-03T16:54:32;-15949.16;;;0.44;84.98
65157;BME280;52745;49.794;18.258;2023-03-03T16:57:14;-15946.44;;;0.34;85.65
65157;BME280;52745;49.794;18.258;2023-03-03T17:08:09;-15921.47;;;-0.59;88.37
65157;BME280;52745;49.794;18.258;2023-03-03T17:10:41;-15920.25;;;-0.64;88.31
65157;BME280;52745;49.794;18.258;2023-03-03T17:18:56;-15930.25;;;-0.27;87.78
65157;BME280;52745;49.794;18.258;2023-03-03T17:29:44;-15947.09;;;0.36;84.86
65157;BME280;52745;49.794;18.258;2023-03-03T17:43:41;-15953.56;;;0.60;83.66
65157;BME280;52745;49.794;18.258;2023-03-03T17:46:16;-15955.59;;;0.68;82.44
65157;BME280;52745;49.794;18.258;2023-03-03T17:49:04;-15953.81;;;0.61;82.85